createdAt,value
2022-12-25T00:00:35.115Z,95099.78
2022-12-25T00:03:02.835Z,95097.25
2022-12-25T00:05:29.840Z,95096.78
2022-12-25T00:07:56.728Z,95097.38
2022-12-25T00:10:23.342Z,95096.09
2022-12-25T00:12:50.174Z,95095.28
2022-12-25T00:15:18.431Z,95097.38
2022-12-25T00:17:44.958Z,95091.53
2022-12-25T00:20:11.850Z,95086.72
2022-12-25T00:22:38.746Z,95093.84
2022-12-25T00:25:05.822Z,95095.91
2022-12-25T00:27:33.314Z,95100.38
2022-12-25T00:30:00.004Z,95097.94
2022-12-25T00:32:36.295Z,95100.81
2022-12-25T00:35:02.919Z,95092.13
2022-12-25T00:37:29.604Z,95096.38
2022-12-25T00:39:56.233Z,95095.31
2022-12-25T00:42:23.875Z,95090.06
2022-12-25T00:44:50.794Z,95093.25
2022-12-25T00:47:17.784Z,95095.63
2022-12-25T00:49:46.137Z,95096.69
2022-12-25T00:52:13.150Z,95097.16
2022-12-25T00:54:39.691Z,95089.72
2022-12-25T00:57:06.290Z,95082.06
2022-12-25T00:59:33.337Z,95082.28
2022-12-25T01:02:20.014Z,95086.44
2022-12-25T01:04:48.599Z,95080.84
2022-12-25T01:07:16.889Z,95075.00
2022-12-25T01:10:02.204Z,95063.34
2022-12-25T01:12:29.044Z,95065.31
2022-12-25T01:14:55.744Z,95064.38
2022-12-25T01:17:22.769Z,95075.38
2022-12-25T01:19:50.888Z,95067.25
2022-12-25T01:22:17.595Z,95068.84
2022-12-25T01:24:44.543Z,95070.69
2022-12-25T01:27:11.764Z,95079.63
2022-12-25T01:29:38.394Z,95084.06
2022-12-25T01:32:05.499Z,95079.63
2022-12-25T01:34:32.311Z,95092.78
2022-12-25T01:37:00.580Z,95091.16
2022-12-25T01:39:27.333Z,95079.38
2022-12-25T01:41:53.824Z,95079.72
2022-12-25T01:44:39.131Z,95070.09
2022-12-25T01:47:06.331Z,95064.38
2022-12-25T01:49:35.098Z,95076.25
2022-12-25T01:52:05.515Z,95064.47
2022-12-25T01:54:35.533Z,95048.34
2022-12-25T01:57:05.103Z,95062.22
2022-12-25T01:59:31.593Z,95058.22
2022-12-25T02:01:59.925Z,95058.22
2022-12-25T02:04:40.247Z,95046.91
2022-12-25T02:07:09.739Z,95036.59
2022-12-25T02:09:36.960Z,95020.25
2022-12-25T02:12:04.172Z,95015.66
2022-12-25T02:14:33.612Z,95022.16
2022-12-25T02:17:05.679Z,95009.38
2022-12-25T02:19:42.855Z,95001.16
2022-12-25T02:22:16.350Z,95005.28
2022-12-25T02:24:57.553Z,95007.91
2022-12-25T02:27:34.575Z,95010.22
2022-12-25T02:30:04.622Z,95013.31
2022-12-25T02:32:34.846Z,95004.94
2022-12-25T02:35:03.146Z,95006.31
2022-12-25T02:37:33.566Z,95010.78
2022-12-25T02:40:02.331Z,95021.63
2022-12-25T02:42:51.717Z,95021.72
2022-12-25T02:45:50.247Z,95027.66
2022-12-25T02:48:36.812Z,95032.03
2022-12-25T02:51:24.106Z,95034.66
2022-12-25T02:54:11.022Z,95034.66
2022-12-25T02:56:58.496Z,95033.16
2022-12-25T02:59:44.260Z,95028.22
2022-12-25T03:02:38.183Z,95032.81
2022-12-25T03:05:26.011Z,95019.97
2022-12-25T03:07:52.654Z,95023.75
2022-12-25T03:10:39.480Z,95026.13
2022-12-25T03:13:08.727Z,95021.91
2022-12-25T03:15:54.131Z,95019.06
2022-12-25T03:18:24.343Z,95019.06
2022-12-25T03:21:09.715Z,95011.94
2022-12-25T03:23:56.305Z,95009.06
2022-12-25T03:26:42.009Z,95008.84
2022-12-25T03:29:08.676Z,95003.34
2022-12-25T03:31:40.300Z,95013.31
2022-12-25T03:34:38.796Z,94990.09
2022-12-25T03:37:18.234Z,94997.09
2022-12-25T03:39:49.535Z,94993.56
2022-12-25T03:42:37.632Z,94990.59
2022-12-25T03:45:26.714Z,94991.97
2022-12-25T03:48:12.887Z,94995.41
2022-12-25T03:51:02.896Z,94992.53
2022-12-25T03:53:50.096Z,94984.66
2022-12-25T03:56:35.914Z,94984.88
2022-12-25T03:59:23.917Z,94975.50
2022-12-25T04:02:09.726Z,94987.81
2022-12-25T04:04:55.107Z,94981.19
2022-12-25T04:07:43.589Z,94986.25
2022-12-25T04:10:39.566Z,94985.44
2022-12-25T04:13:24.583Z,94988.31
2022-12-25T04:16:10.141Z,94986.47
2022-12-25T04:18:55.544Z,94980.75
2022-12-25T04:21:40.833Z,94984.75
2022-12-25T04:24:28.765Z,94989.75
2022-12-25T04:27:13.723Z,94997.44
2022-12-25T04:29:59.255Z,95000.06
2022-12-25T04:32:44.259Z,95002.91
2022-12-25T04:35:29.585Z,95008.19
2022-12-25T04:37:56.274Z,95014.72
2022-12-25T04:40:24.212Z,95017.34
2022-12-25T04:42:51.168Z,95013.44
2022-12-25T04:45:17.708Z,95017.44
2022-12-25T04:47:44.205Z,95008.53
2022-12-25T04:50:10.931Z,95009.53
2022-12-25T04:52:38.114Z,95008.97
2022-12-25T04:55:05.439Z,95007.59
2022-12-25T04:57:33.916Z,95005.69
2022-12-25T05:00:00.465Z,95016.44
2022-12-25T05:02:27.465Z,95017.72
2022-12-25T05:04:54.109Z,95012.69
2022-12-25T05:07:20.571Z,95000.09
2022-12-25T05:09:47.269Z,95009.03
2022-12-25T05:12:14.147Z,95007.44
2022-12-25T05:14:42.347Z,95000.81
2022-12-25T05:17:08.945Z,95001.81
2022-12-25T05:19:35.635Z,95012.03
2022-12-25T05:22:02.262Z,94994.63
2022-12-25T05:24:28.789Z,95000.91
2022-12-25T05:26:55.505Z,95009.00
2022-12-25T05:29:22.269Z,95008.22
2022-12-25T05:31:50.504Z,95008.00
2022-12-25T05:34:17.216Z,95004.94
2022-12-25T05:36:43.876Z,95006.06
2022-12-25T05:39:10.354Z,95008.22
2022-12-25T05:41:36.882Z,94998.50
2022-12-25T05:44:03.554Z,94987.97
2022-12-25T05:46:30.105Z,94986.63
2022-12-25T05:48:58.065Z,94988.44
2022-12-25T05:51:26.404Z,94985.25
2022-12-25T05:53:52.951Z,94988.94
2022-12-25T05:56:19.579Z,94993.13
2022-12-25T05:58:46.060Z,94987.66
2022-12-25T06:01:13.103Z,94983.19
2022-12-25T06:03:39.643Z,94988.19
2022-12-25T06:06:08.286Z,94983.50
2022-12-25T06:08:34.786Z,94982.72
2022-12-25T06:11:02.306Z,94985.91
2022-12-25T06:13:28.754Z,94988.78
2022-12-25T06:15:55.313Z,94982.16
2022-12-25T06:18:22.042Z,94986.41
2022-12-25T06:20:48.587Z,94983.75
2022-12-25T06:23:16.564Z,94984.56
2022-12-25T06:25:43.145Z,94984.56
2022-12-25T06:28:09.818Z,94991.88
2022-12-25T06:30:36.278Z,94986.41
2022-12-25T06:33:02.800Z,94985.56
2022-12-25T06:35:29.279Z,94981.66
2022-12-25T06:37:56.772Z,94978.81
2022-12-25T06:40:25.096Z,94971.16
2022-12-25T06:42:52.052Z,94965.88
2022-12-25T06:45:18.551Z,94964.31
2022-12-25T06:47:45.029Z,94965.34
2022-12-25T06:50:11.698Z,94962.38
2022-12-25T06:52:38.176Z,94965.69
2022-12-25T06:55:04.985Z,94961.34
2022-12-25T06:57:33.017Z,94968.91
2022-12-25T06:59:59.548Z,94976.00
2022-12-25T07:02:26.243Z,94983.06
2022-12-25T07:04:53.256Z,94978.88
2022-12-25T07:07:23.113Z,94967.78
2022-12-25T07:09:49.656Z,94966.19
2022-12-25T07:12:16.941Z,94967.44
2022-12-25T07:14:45.817Z,94962.09
2022-12-25T07:17:12.301Z,94970.09
2022-12-25T07:19:44.622Z,94966.34
2022-12-25T07:22:11.833Z,94973.09
2022-12-25T07:24:38.300Z,94972.75
2022-12-25T07:27:04.874Z,94973.75
2022-12-25T07:29:31.384Z,94976.41
2022-12-25T07:31:59.610Z,94979.28
2022-12-25T07:34:26.583Z,94971.59
2022-12-25T07:36:54.737Z,94974.94
2022-12-25T07:39:21.273Z,94977.22
2022-12-25T07:41:47.751Z,94979.06
2022-12-25T07:44:14.581Z,94980.09
2022-12-25T07:46:41.109Z,94973.22
2022-12-25T07:49:09.345Z,94969.22
2022-12-25T07:51:35.864Z,94974.72
2022-12-25T07:54:02.549Z,94972.56
2022-12-25T07:56:29.230Z,94973.00
2022-12-25T07:58:55.871Z,94979.88
2022-12-25T08:01:23.822Z,94978.84
2022-12-25T08:03:50.738Z,94981.34
2022-12-25T08:06:19.226Z,94971.13
2022-12-25T08:08:45.944Z,94970.66
2022-12-25T08:11:12.491Z,94971.06
2022-12-25T08:13:39.563Z,94976.69
2022-12-25T08:16:10.575Z,94968.94
2022-12-25T08:18:37.606Z,94963.06
2022-12-25T08:21:05.387Z,94965.88
2022-12-25T08:23:35.031Z,94964.97
2022-12-25T08:26:05.607Z,94965.06
2022-12-25T08:28:33.289Z,94974.59
2022-12-25T08:30:59.980Z,94970.63
2022-12-25T08:33:26.499Z,94971.59
2022-12-25T08:35:53.258Z,94958.50
2022-12-25T08:38:19.748Z,94959.34
2022-12-25T08:40:47.800Z,94954.97
2022-12-25T08:43:14.334Z,94960.94
2022-12-25T08:45:40.990Z,94967.44
2022-12-25T08:48:07.686Z,94961.56
2022-12-25T08:50:34.344Z,94965.41
2022-12-25T08:53:01.101Z,94962.19
2022-12-25T08:55:27.685Z,94964.41
2022-12-25T08:57:57.966Z,94966.31
2022-12-25T09:00:24.680Z,94965.31
2022-12-25T09:02:51.387Z,94963.25
2022-12-25T09:05:19.775Z,94950.56
2022-12-25T09:07:46.600Z,94945.81
2022-12-25T09:10:13.115Z,94947.41
2022-12-25T09:12:39.652Z,94949.78
2022-12-25T09:15:09.710Z,94943.66
2022-12-25T09:17:39.767Z,94948.97
2022-12-25T09:20:07.057Z,94940.81
2022-12-25T09:22:34.229Z,94938.72
2022-12-25T09:27:44.336Z,94924.66
2022-12-25T09:30:13.421Z,94924.34
2022-12-25T09:32:40.367Z,94923.97
2022-12-25T09:35:07.311Z,94910.59
2022-12-25T09:37:34.197Z,94914.13
2022-12-25T09:40:00.820Z,94912.31
2022-12-25T09:42:29.330Z,94910.78
2022-12-25T09:44:57.720Z,94909.50
2022-12-25T09:47:28.680Z,94897.66
2022-12-25T09:49:58.255Z,94897.28
2022-12-25T09:52:27.886Z,94895.63
2022-12-25T09:54:56.616Z,94897.72
2022-12-25T10:00:15.463Z,94890.41
2022-12-25T10:03:04.414Z,94889.00
2022-12-25T10:05:52.943Z,94882.94
2022-12-25T10:08:31.285Z,94882.47
2022-12-25T10:11:05.774Z,94880.56
2022-12-25T10:13:55.391Z,94887.25
2022-12-25T10:16:31.881Z,94880.31
2022-12-25T10:19:27.953Z,94885.06
2022-12-25T10:32:58.898Z,94887.75
2022-12-25T10:38:37.470Z,94876.63
2022-12-25T10:41:32.195Z,94874.31
2022-12-25T10:43:59.033Z,94875.00
2022-12-25T10:46:28.526Z,94866.09
2022-12-25T10:48:57.530Z,94869.53
2022-12-25T10:51:32.676Z,94868.09
2022-12-25T10:54:02.012Z,94870.06
2022-12-25T10:56:28.708Z,94861.81
2022-12-25T10:59:05.043Z,94853.94
2022-12-25T11:01:32.070Z,94852.66
2022-12-25T11:03:59.221Z,94837.41
2022-12-25T11:06:27.946Z,94835.31
2022-12-25T11:08:56.815Z,94834.91
2022-12-25T11:11:26.061Z,94826.88
2022-12-25T11:13:55.087Z,94823.56
2022-12-25T11:16:29.756Z,94819.34
2022-12-25T11:18:57.772Z,94824.06
2022-12-25T11:21:26.916Z,94815.81
2022-12-25T11:23:58.817Z,94822.09
2022-12-25T11:26:28.261Z,94813.78
2022-12-25T11:32:07.004Z,94810.53
2022-12-25T11:34:46.116Z,94811.66
2022-12-25T11:37:22.344Z,94803.19
2022-12-25T11:39:49.643Z,94797.22
2022-12-25T11:42:24.519Z,94795.81
2022-12-25T11:44:58.139Z,94789.69
2022-12-25T11:47:31.924Z,94793.88
2022-12-25T11:50:10.381Z,94789.91
2022-12-25T11:52:41.035Z,94787.25
2022-12-25T11:55:18.079Z,94784.13
2022-12-25T12:03:31.908Z,94777.34
2022-12-25T12:08:50.007Z,94777.50
2022-12-25T12:11:22.682Z,94778.59
2022-12-25T12:14:01.455Z,94776.97
2022-12-25T12:24:41.787Z,94760.50
2022-12-25T12:27:24.867Z,94749.13
2022-12-25T12:30:00.920Z,94747.19
2022-12-25T12:32:52.336Z,94743.06
2022-12-25T12:35:22.251Z,94742.94
2022-12-25T12:40:37.658Z,94743.91
2022-12-25T12:49:11.812Z,94727.03
2022-12-25T12:51:46.803Z,94739.22
2022-12-25T12:54:23.777Z,94741.09
2022-12-25T12:57:01.799Z,94725.59
2022-12-25T12:59:39.973Z,94728.34
2022-12-25T13:02:28.232Z,94732.41
2022-12-25T13:05:07.040Z,94733.28
2022-12-25T13:07:53.177Z,94735.44
2022-12-25T13:10:25.572Z,94733.25
2022-12-25T13:12:56.860Z,94741.75
2022-12-25T13:15:28.041Z,94733.06
2022-12-25T13:17:56.904Z,94724.31
2022-12-25T13:20:38.806Z,94720.56
2022-12-25T13:23:14.361Z,94718.78
2022-12-25T13:25:41.193Z,94712.41
2022-12-25T13:28:14.460Z,94712.59
2022-12-25T13:30:42.420Z,94713.28
2022-12-25T13:33:18.877Z,94714.97
2022-12-25T13:35:47.768Z,94707.09
2022-12-25T13:38:17.027Z,94705.38
2022-12-25T13:41:11.370Z,94703.81
2022-12-25T13:43:42.474Z,94703.38
2022-12-25T13:46:13.141Z,94703.97
2022-12-25T13:48:40.244Z,94709.63
2022-12-25T13:51:23.619Z,94716.28
2022-12-25T13:53:52.075Z,94720.34
2022-12-25T13:56:19.132Z,94727.03
2022-12-25T13:58:47.907Z,94730.25
2022-12-25T14:01:16.739Z,94730.88
2022-12-25T14:03:46.346Z,94726.19
2022-12-25T14:06:24.936Z,94722.81
2022-12-25T14:08:56.208Z,94719.47
2022-12-25T14:11:25.391Z,94719.22
2022-12-25T14:13:54.988Z,94724.38
2022-12-25T14:16:22.857Z,94728.44
2022-12-25T14:18:56.235Z,94725.00
2022-12-25T14:21:29.238Z,94713.94
2022-12-25T14:23:56.633Z,94718.22
2022-12-25T14:26:26.151Z,94719.84
2022-12-25T14:28:55.494Z,94716.91
2022-12-25T14:31:25.101Z,94722.22
2022-12-25T14:33:54.848Z,94731.03
2022-12-25T14:36:22.018Z,94739.22
2022-12-25T14:38:58.004Z,94735.53
2022-12-25T14:41:34.251Z,94725.50
2022-12-25T14:44:03.862Z,94732.91
2022-12-25T14:46:32.613Z,94733.44
2022-12-25T14:49:00.486Z,94736.09
2022-12-25T14:51:29.820Z,94732.91
2022-12-25T14:54:03.053Z,94738.19
2022-12-25T14:56:39.756Z,94735.81
2022-12-25T14:59:10.052Z,94736.06
2022-12-25T15:01:40.070Z,94727.06
2022-12-25T15:04:14.766Z,94719.91
2022-12-25T15:06:52.459Z,94720.13
2022-12-25T15:09:21.096Z,94711.41
2022-12-25T15:11:49.163Z,94724.88
2022-12-25T15:14:15.939Z,94728.81
2022-12-25T15:16:45.775Z,94736.50
2022-12-25T15:19:21.894Z,94740.44
2022-12-25T15:21:52.234Z,94743.31
2022-12-25T15:24:20.553Z,94748.31
2022-12-25T15:26:47.367Z,94750.94
2022-12-25T15:29:14.180Z,94753.28
2022-12-25T15:31:42.205Z,94757.50
2022-12-25T15:34:17.381Z,94756.19
2022-12-25T15:36:44.210Z,94753.72
2022-12-25T15:39:11.053Z,94760.03
2022-12-25T15:41:58.994Z,94766.06
2022-12-25T15:44:26.845Z,94769.13
2022-12-25T15:46:54.754Z,94771.72
2022-12-25T15:49:21.596Z,94762.38
2022-12-25T15:51:48.331Z,94759.63
2022-12-25T15:54:15.224Z,94754.50
2022-12-25T16:00:33.633Z,94750.06
2022-12-25T16:03:00.633Z,94758.75
2022-12-25T16:05:27.866Z,94762.88
2022-12-25T16:07:54.630Z,94759.91
2022-12-25T16:10:23.023Z,94758.00
2022-12-25T16:12:51.298Z,94760.34
2022-12-25T16:15:19.806Z,94754.69
2022-12-25T16:17:46.557Z,94760.97
2022-12-25T16:20:14.180Z,94752.78
2022-12-25T16:22:43.337Z,94765.94
2022-12-25T16:25:17.179Z,94765.94
2022-12-25T16:27:44.758Z,94772.75
2022-12-25T16:30:16.990Z,94778.00
2022-12-25T16:32:44.508Z,94780.09
2022-12-25T16:35:12.288Z,94783.00
2022-12-25T16:37:39.160Z,94781.16
2022-12-25T16:40:07.253Z,94777.47
2022-12-25T16:42:34.315Z,94780.34
2022-12-25T16:45:01.226Z,94790.06
2022-12-25T16:47:31.236Z,94790.91
2022-12-25T16:49:58.345Z,94792.19
2022-12-25T16:52:25.103Z,94790.28
2022-12-25T16:54:51.884Z,94791.78
2022-12-25T16:57:18.625Z,94801.47
2022-12-25T16:59:45.654Z,94794.31
2022-12-25T17:02:16.395Z,94796.34
2022-12-25T17:04:47.630Z,94796.91
2022-12-25T17:07:16.471Z,94797.81
2022-12-25T17:09:44.803Z,94788.50
2022-12-25T17:12:11.868Z,94797.38
2022-12-25T17:14:38.774Z,94792.53
2022-12-25T17:17:05.747Z,94793.72
2022-12-25T17:19:33.726Z,94792.91
2022-12-25T17:22:03.701Z,94792.09
2022-12-25T17:24:30.835Z,94788.88
2022-12-25T17:26:57.581Z,94786.53
2022-12-25T17:29:25.273Z,94791.09
2022-12-25T17:31:52.344Z,94799.44
2022-12-25T17:34:19.662Z,94806.75
2022-12-25T17:36:46.383Z,94812.00
2022-12-25T17:39:14.522Z,94807.09
2022-12-25T17:41:41.617Z,94809.84
2022-12-25T17:44:09.055Z,94811.25
2022-12-25T17:46:35.864Z,94804.94
2022-12-25T17:49:03.725Z,94810.75
2022-12-25T17:51:31.818Z,94810.66
2022-12-25T17:54:03.039Z,94814.28
2022-12-25T17:56:32.435Z,94839.06
2022-12-25T17:59:03.613Z,94822.03
2022-12-25T18:01:30.466Z,94823.72
2022-12-25T18:03:59.804Z,94835.38
2022-12-25T18:06:29.019Z,94837.53
2022-12-25T18:08:57.213Z,94852.25
2022-12-25T18:11:29.833Z,94852.25
2022-12-25T18:14:01.615Z,94860.50
2022-12-25T18:16:30.956Z,94863.91
2022-12-25T18:18:59.864Z,94853.88
2022-12-25T18:21:27.313Z,94853.59
2022-12-25T18:23:54.474Z,94862.63
2022-12-25T18:26:21.972Z,94858.84
2022-12-25T18:28:49.701Z,94861.16
2022-12-25T18:31:20.413Z,94869.72
2022-12-25T18:33:48.171Z,94866.22
2022-12-25T18:36:17.559Z,94866.00
2022-12-25T18:38:44.270Z,94866.44
2022-12-25T18:41:11.626Z,94868.25
2022-12-25T18:43:53.122Z,94867.25
2022-12-25T18:46:25.275Z,94880.13
2022-12-25T18:48:52.871Z,94878.66
2022-12-25T18:51:19.662Z,94878.91
2022-12-25T18:53:46.518Z,94876.19
2022-12-25T18:56:15.788Z,94874.50
2022-12-25T18:58:43.392Z,94879.50
2022-12-25T19:01:12.708Z,94883.25
2022-12-25T19:03:41.499Z,94886.47
2022-12-25T19:06:08.822Z,94887.03
2022-12-25T19:08:35.960Z,94876.44
2022-12-25T19:11:06.902Z,94882.22
2022-12-25T19:13:33.857Z,94883.59
2022-12-25T19:16:00.996Z,94873.91
2022-12-25T19:18:28.191Z,94879.81
2022-12-25T19:20:56.404Z,94881.72
2022-12-25T19:23:23.152Z,94892.91
2022-12-25T19:25:49.787Z,94887.88
2022-12-25T19:28:17.910Z,94894.38
2022-12-25T19:30:44.798Z,94896.41
2022-12-25T19:33:17.425Z,94896.53
2022-12-25T19:35:44.827Z,94898.44
2022-12-25T19:38:13.274Z,94899.88
2022-12-25T19:40:40.899Z,94899.47
2022-12-25T19:43:08.038Z,94907.00
2022-12-25T19:45:34.918Z,94909.31
2022-12-25T19:48:01.645Z,94906.03
2022-12-25T19:50:32.189Z,94905.44
2022-12-25T19:52:59.209Z,94899.72
2022-12-25T19:55:27.568Z,94902.78
2022-12-25T19:57:55.525Z,94908.25
2022-12-25T20:00:22.346Z,94911.00
2022-12-25T20:02:49.234Z,94904.06
2022-12-25T20:05:16.910Z,94909.53
2022-12-25T20:07:44.017Z,94908.59
2022-12-25T20:10:11.050Z,94907.69
2022-12-25T20:12:39.351Z,94903.69
2022-12-25T20:15:07.351Z,94909.97
2022-12-25T20:17:34.563Z,94913.13
2022-12-25T20:20:01.312Z,94919.19
2022-12-25T20:22:30.234Z,94922.50
2022-12-25T20:24:56.985Z,94918.44
2022-12-25T20:27:23.793Z,94922.19
2022-12-25T20:29:53.587Z,94924.38
2022-12-25T20:32:20.409Z,94917.91
2022-12-25T20:34:47.211Z,94924.28
2022-12-25T20:37:14.098Z,94925.44
2022-12-25T20:39:40.997Z,94923.50
2022-12-25T20:42:08.053Z,94921.00
2022-12-25T20:44:35.052Z,94921.91
2022-12-25T20:47:04.025Z,94917.50
2022-12-25T20:49:33.368Z,94922.03
2022-12-25T20:52:05.305Z,94923.19
2022-12-25T20:54:32.980Z,94916.72
2022-12-25T20:56:59.741Z,94923.53
2022-12-25T20:59:27.894Z,94929.94
2022-12-25T21:01:58.933Z,94928.69
2022-12-25T21:04:29.672Z,94925.03
2022-12-25T21:06:57.476Z,94925.03
2022-12-25T21:09:26.195Z,94924.56
2022-12-25T21:11:52.811Z,94922.53
2022-12-25T21:14:20.182Z,94923.91
2022-12-25T21:16:47.812Z,94911.56
2022-12-25T21:19:16.365Z,94916.03
2022-12-25T21:21:45.088Z,94920.50
2022-12-25T21:24:12.263Z,94918.06
2022-12-25T21:26:41.821Z,94914.66
2022-12-25T21:29:12.906Z,94921.75
2022-12-25T21:32:18.903Z,94924.56
2022-12-25T21:34:45.969Z,94929.50
2022-12-25T21:37:14.306Z,94928.44
2022-12-25T21:39:41.290Z,94926.66
2022-12-25T21:42:07.991Z,94932.69
2022-12-25T21:44:36.196Z,94937.56
2022-12-25T21:47:04.754Z,94938.84
2022-12-25T21:49:50.515Z,94946.94
2022-12-25T21:52:18.891Z,94952.28
2022-12-25T21:54:46.545Z,94943.50
2022-12-25T21:57:13.268Z,94942.13
2022-12-25T21:59:40.730Z,94952.06
2022-12-25T22:02:11.891Z,94945.66
2022-12-25T22:04:39.087Z,94951.81
2022-12-25T22:07:18.075Z,94956.34
2022-12-25T22:09:51.494Z,94945.91
2022-12-25T22:12:39.598Z,94955.59
2022-12-25T22:15:09.631Z,94956.56
2022-12-25T22:17:56.604Z,94957.22
2022-12-25T22:20:28.265Z,94960.88
2022-12-25T22:22:56.194Z,94962.69
2022-12-25T22:25:24.786Z,94964.16
2022-12-25T22:27:51.818Z,94954.97
2022-12-25T22:30:20.962Z,94962.72
2022-12-25T22:32:48.635Z,94964.97
2022-12-25T22:35:16.663Z,94963.38
2022-12-25T22:37:43.967Z,94962.56
2022-12-25T22:40:13.138Z,94962.34
2022-12-25T22:42:42.229Z,94968.63
2022-12-25T22:45:10.427Z,94965.19
2022-12-25T22:47:37.259Z,94954.72
2022-12-25T22:50:05.234Z,94963.38
2022-12-25T22:52:32.149Z,94961.53
2022-12-25T22:54:58.874Z,94970.00
2022-12-25T22:57:26.259Z,94963.50
2022-12-25T22:59:57.554Z,94968.91
2022-12-25T23:02:24.778Z,94961.47
2022-12-25T23:04:51.738Z,94964.50
2022-12-25T23:07:18.975Z,94960.09
2022-12-25T23:09:45.810Z,94963.66
2022-12-25T23:12:32.909Z,94960.34
2022-12-25T23:15:01.621Z,94955.69
2022-12-25T23:17:47.127Z,94945.88
2022-12-25T23:20:33.654Z,94960.09
2022-12-25T23:23:19.366Z,94958.34
2022-12-25T23:26:05.045Z,94965.41
2022-12-25T23:28:50.575Z,94966.19
2022-12-25T23:31:23.114Z,94959.38
2022-12-25T23:33:51.459Z,94972.91
2022-12-25T23:36:18.278Z,94968.69
2022-12-25T23:38:45.901Z,94973.13
2022-12-25T23:41:12.663Z,94986.00
2022-12-25T23:43:39.310Z,94976.53
2022-12-25T23:46:06.111Z,94979.38
2022-12-25T23:48:34.401Z,94982.66
2022-12-25T23:51:03.251Z,94974.41
2022-12-25T23:53:30.075Z,94972.22
2022-12-25T23:55:57.655Z,94983.38
2022-12-25T23:58:24.856Z,94979.56
